Time;durP1;ratioP1;P1;durP2;ratioP2;P2;SDS_P1;SDS_P2;PMS_P1;PMS_P2;Temp;Humidity;BMP_temperature;BMP_pressure;BME280_temperature;BME280_humidity;BME280_pressure;Samples;Min_cycle;Max_cycle;Signal;HPM_P1;HPM_P2
2022/11/29 00:00:48;;;;;;;19.37;18.37;;;10.70;44.80;;;;;;5077878;28;20247;-51
2022/11/29 00:03:14;;;;;;;19.30;18.10;;;10.60;45.20;;;;;;5071771;28;20986;-54
2022/11/29 00:05:40;;;;;;;19.03;17.93;;;10.60;45.00;;;;;;5079033;28;20431;-54
2022/11/29 00:08:06;;;;;;;19.10;17.90;;;10.60;45.90;;;;;;5077251;28;20412;-53
2022/11/29 00:10:35;;;;;;;20.40;19.00;;;10.50;46.20;;;;;;5080632;28;20182;-54
2022/11/29 00:13:01;;;;;;;20.77;19.57;;;10.40;45.70;;;;;;5082868;28;20490;-54
2022/11/29 00:15:27;;;;;;;20.17;18.97;;;10.30;46.00;;;;;;5073135;28;20957;-54
2022/11/29 00:17:52;;;;;;;20.67;19.23;;;10.10;47.00;;;;;;5080787;28;20186;-52
2022/11/29 00:20:18;;;;;;;20.20;19.00;;;9.90;48.80;;;;;;5061492;28;20197;-52
2022/11/29 00:22:43;;;;;;;19.40;18.23;;;9.90;49.30;;;;;;5070060;28;20214;-51
2022/11/29 00:25:09;;;;;;;19.53;18.43;;;10.00;48.70;;;;;;5069927;28;20551;-53
2022/11/29 00:27:35;;;;;;;18.47;17.27;;;9.90;49.40;;;;;;5079964;28;20174;-53
2022/11/29 00:30:00;;;;;;;19.87;18.57;;;9.70;50.30;;;;;;5063338;28;20174;-54
2022/11/29 00:32:26;;;;;;;20.23;18.80;;;9.70;50.60;;;;;;5073047;28;20247;-53
2022/11/29 00:34:52;;;;;;;18.77;17.67;;;9.60;51.50;;;;;;5071350;28;20214;-54
2022/11/29 00:37:17;;;;;;;18.73;17.63;;;9.80;51.80;;;;;;5072520;28;20220;-51
2022/11/29 00:39:43;;;;;;;19.50;18.23;;;10.00;50.00;;;;;;5071567;28;20182;-54
2022/11/29 00:42:09;;;;;;;18.73;17.57;;;10.00;49.20;;;;;;5097408;28;20213;-53
2022/11/29 00:44:34;;;;;;;19.60;18.40;;;10.00;50.00;;;;;;5063664;28;20225;-53
2022/11/29 00:47:00;;;;;;;18.70;17.50;;;9.90;50.70;;;;;;5077542;28;20699;-50
2022/11/29 00:49:25;;;;;;;18.53;17.43;;;9.90;51.40;;;;;;5077917;28;20208;-54
2022/11/29 00:51:51;;;;;;;19.60;18.40;;;9.90;52.20;;;;;;5078712;28;20623;-53
2022/11/29 00:54:17;;;;;;;19.10;18.03;;;10.00;50.30;;;;;;5074795;28;21277;-54
2022/11/29 00:56:42;;;;;;;19.50;18.20;;;10.00;50.00;;;;;;5081823;28;20209;-50
2022/11/29 00:59:09;;;;;;;18.67;17.47;;;10.10;49.80;;;;;;5079379;28;20601;-54
2022/11/29 01:01:34;;;;;;;17.93;16.90;;;10.10;49.30;;;;;;5096576;28;20265;-54
2022/11/29 01:04:01;;;;;;;18.73;17.63;;;10.10;49.60;;;;;;5071008;28;21039;-54
2022/11/29 01:06:27;;;;;;;18.33;17.27;;;10.10;49.60;;;;;;5074102;28;20195;-50
2022/11/29 01:08:52;;;;;;;19.00;17.90;;;10.00;49.60;;;;;;5068356;28;20460;-51
2022/11/29 01:11:24;;;;;;;17.90;16.90;;;10.00;49.70;;;;;;5070608;28;20203;-53
2022/11/29 01:13:53;;;;;;;18.53;17.43;;;10.10;50.20;;;;;;5068421;28;20191;-51
2022/11/29 01:16:19;;;;;;;18.57;17.37;;;10.20;49.70;;;;;;5063088;28;20432;-54
2022/11/29 01:18:45;;;;;;;19.13;18.03;;;10.30;49.20;;;;;;5073639;28;20424;-58
2022/11/29 01:21:20;;;;;;;19.50;18.23;;;10.40;48.90;;;;;;5074810;28;20177;-58
2022/11/29 01:23:46;;;;;;;17.80;16.90;;;10.50;48.90;;;;;;5073451;28;20464;-58
2022/11/29 01:26:15;;;;;;;17.77;16.87;;;10.60;48.50;;;;;;5075460;28;20504;-52
2022/11/29 01:28:41;;;;;;;18.27;17.27;;;10.70;47.70;;;;;;5078235;28;20507;-50
2022/11/29 01:31:08;;;;;;;18.20;17.20;;;10.70;46.70;;;;;;5091186;28;20414;-50
2022/11/29 01:33:34;;;;;;;17.90;16.97;;;10.70;46.80;;;;;;5071838;28;20425;-53
2022/11/29 01:36:00;;;;;;;16.47;15.57;;;10.50;46.90;;;;;;5075302;28;20423;-53
2022/11/29 01:38:26;;;;;;;17.97;16.87;;;10.40;47.40;;;;;;5068629;28;20420;-58
2022/11/29 01:41:02;;;;;;;17.63;16.67;;;10.40;47.30;;;;;;5073158;28;20190;-58
2022/11/29 01:43:29;;;;;;;18.37;17.27;;;10.40;47.70;;;;;;5062878;28;20221;-57
2022/11/29 01:45:54;;;;;;;16.77;15.87;;;10.40;47.60;;;;;;5079016;28;20423;-57
2022/11/29 01:48:25;;;;;;;17.20;16.20;;;10.40;47.80;;;;;;5065939;28;20429;-58
2022/11/29 01:50:53;;;;;;;16.53;15.63;;;10.40;47.50;;;;;;5070376;28;20179;-53
2022/11/29 01:53:19;;;;;;;16.83;15.90;;;10.50;47.40;;;;;;5065445;28;20470;-54
2022/11/29 01:55:52;;;;;;;16.60;15.50;;;10.60;47.40;;;;;;5078781;28;20500;-54
2022/11/29 01:58:18;;;;;;;16.17;15.30;;;10.60;47.60;;;;;;5076037;28;20431;-54
2022/11/29 02:00:44;;;;;;;15.07;14.30;;;10.70;47.10;;;;;;5078079;28;20423;-53
2022/11/29 02:03:15;;;;;;;17.17;16.17;;;10.80;46.00;;;;;;5074799;28;20459;-54
2022/11/29 02:05:50;;;;;;;16.37;15.37;;;10.70;45.60;;;;;;5072906;28;20178;-58
2022/11/29 02:08:26;;;;;;;16.30;15.50;;;10.80;46.60;;;;;;5071649;28;20445;-58
2022/11/29 02:11:19;;;;;;;15.80;15.00;;;10.60;45.70;;;;;;5073982;28;20411;-58
2022/11/29 02:14:03;;;;;;;15.90;15.10;;;10.50;46.70;;;;;;5068987;28;20474;-58
2022/11/29 02:17:01;;;;;;;15.33;14.50;;;10.50;46.60;;;;;;5077771;28;20949;-58
2022/11/29 02:19:48;;;;;;;15.60;14.80;;;10.30;47.50;;;;;;5043067;28;20463;-54
2022/11/29 02:22:36;;;;;;;15.67;14.87;;;10.20;48.00;;;;;;5070434;28;20456;-53
2022/11/29 02:25:50;;;;;;;16.70;15.87;;;10.20;48.50;;;;;;5078478;28;20416;-56
2022/11/29 02:28:35;;;;;;;15.13;14.43;;;10.10;48.60;;;;;;5073549;27;20409;-52
2022/11/29 02:31:25;;;;;;;15.43;14.73;;;10.10;49.00;;;;;;5065976;28;20940;-53
2022/11/29 02:34:06;;;;;;;15.63;14.90;;;10.00;49.30;;;;;;5079407;28;20419;-50
2022/11/29 02:36:50;;;;;;;15.00;14.30;;;9.90;50.80;;;;;;5072212;28;20416;-50
2022/11/29 02:39:19;;;;;;;16.60;15.80;;;10.00;50.20;;;;;;5069467;28;20518;-55
2022/11/29 02:41:54;;;;;;;14.70;14.00;;;10.10;49.50;;;;;;5069035;28;20504;-56
2022/11/29 02:44:26;;;;;;;15.10;14.30;;;10.00;49.60;;;;;;5069240;28;20425;-58
2022/11/29 02:47:26;;;;;;;15.40;14.60;;;10.00;49.00;;;;;;5074901;28;20554;-58
2022/11/29 02:50:16;;;;;;;15.10;14.30;;;9.90;50.10;;;;;;5069618;28;20413;-58
2022/11/29 02:53:05;;;;;;;15.17;14.37;;;10.00;50.20;;;;;;5066097;28;20409;-56
2022/11/29 02:55:42;;;;;;;15.47;14.67;;;10.10;49.10;;;;;;5077348;28;20815;-57
2022/11/29 02:58:34;;;;;;;15.20;14.40;;;10.20;49.50;;;;;;5072623;28;20806;-57
2022/11/29 03:01:22;;;;;;;14.10;13.40;;;10.40;49.30;;;;;;5064602;28;20419;-57
2022/11/29 03:04:13;;;;;;;13.70;13.00;;;10.60;48.50;;;;;;5072985;28;20974;-57
2022/11/29 03:07:03;;;;;;;14.53;13.73;;;10.70;47.60;;;;;;5067058;28;20420;-58
2022/11/29 03:09:41;;;;;;;14.57;13.87;;;10.80;47.90;;;;;;5092439;28;20409;-57
2022/11/29 03:12:28;;;;;;;15.00;14.20;;;10.90;46.70;;;;;;5083428;28;20411;-58
2022/11/29 03:15:19;;;;;;;14.60;13.90;;;11.00;46.20;;;;;;5077270;28;20431;-57
2022/11/29 03:18:06;;;;;;;13.90;13.20;;;11.00;45.20;;;;;;5075246;28;20885;-51
2022/11/29 03:20:54;;;;;;;14.57;13.87;;;11.10;45.30;;;;;;5067533;28;20919;-54
2022/11/29 03:23:31;;;;;;;13.40;12.80;;;11.20;45.10;;;;;;5081763;28;20942;-52
2022/11/29 03:26:23;;;;;;;13.23;12.53;;;11.20;44.60;;;;;;5071623;28;20550;-53
2022/11/29 03:28:59;;;;;;;13.67;13.03;;;11.20;44.60;;;;;;5046535;28;20424;-53
2022/11/29 03:31:30;;;;;;;13.97;13.27;;;11.20;44.40;;;;;;5069023;28;20887;-50
2022/11/29 03:34:35;;;;;;;14.33;13.63;;;11.20;44.30;;;;;;5070896;28;20523;-55
2022/11/29 03:37:16;;;;;;;13.23;12.53;;;11.30;44.00;;;;;;5048922;28;20415;-51
2022/11/29 03:40:01;;;;;;;15.27;14.47;;;11.30;43.70;;;;;;5068912;28;21014;-54
2022/11/29 03:42:35;;;;;;;14.87;14.17;;;11.30;43.80;;;;;;5087585;28;20471;-58
2022/11/29 03:45:21;;;;;;;15.27;14.43;;;11.30;44.30;;;;;;5075620;28;20993;-58
2022/11/29 03:47:56;;;;;;;14.53;13.83;;;11.10;44.50;;;;;;5075565;28;20447;-58
2022/11/29 03:50:31;;;;;;;15.27;14.47;;;10.90;44.90;;;;;;5078175;28;20957;-57
2022/11/29 03:53:32;;;;;;;14.83;14.13;;;10.80;45.90;;;;;;5067590;28;20521;-58
2022/11/29 03:56:21;;;;;;;15.30;14.50;;;10.70;47.10;;;;;;5083991;28;20419;-58
2022/11/29 03:59:05;;;;;;;15.80;15.10;;;10.70;46.70;;;;;;5082725;28;20413;-58
2022/11/29 04:02:01;;;;;;;15.27;14.57;;;10.50;47.50;;;;;;5074378;28;20416;-58
2022/11/29 04:04:29;;;;;;;15.37;14.67;;;10.30;47.90;;;;;;5080147;28;20445;-58
2022/11/29 04:07:18;;;;;;;15.23;14.53;;;10.30;48.90;;;;;;5075147;28;20419;-58
2022/11/29 04:10:13;;;;;;;13.87;13.23;;;10.30;49.10;;;;;;5075474;28;20469;-58
2022/11/29 04:12:57;;;;;;;14.87;14.10;;;10.20;49.60;;;;;;5074824;28;20477;-58
2022/11/29 04:15:29;;;;;;;15.60;14.80;;;10.30;48.90;;;;;;5082845;28;20415;-58
2022/11/29 04:18:22;;;;;;;16.30;15.60;;;10.30;48.60;;;;;;5074759;28;20466;-58
2022/11/29 04:21:25;;;;;;;15.37;14.57;;;10.30;49.00;;;;;;5080146;28;20515;-58
2022/11/29 04:23:51;;;;;;;14.43;13.73;;;10.30;49.00;;;;;;5077579;28;20455;-58
2022/11/29 04:26:50;;;;;;;12.90;12.33;;;10.30;49.20;;;;;;5077080;28;20514;-58
2022/11/29 04:29:43;;;;;;;13.50;12.90;;;10.30;48.60;;;;;;5078778;28;20177;-58
2022/11/29 04:32:38;;;;;;;13.30;12.63;;;10.40;48.30;;;;;;5072767;28;20837;-59
2022/11/29 04:35:23;;;;;;;12.67;12.07;;;10.60;48.30;;;;;;5083690;28;20449;-58
2022/11/29 04:38:00;;;;;;;13.00;12.50;;;10.50;47.70;;;;;;5072128;28;20443;-57
2022/11/29 04:40:29;;;;;;;12.60;12.10;;;10.50;47.40;;;;;;5086454;28;20416;-58
2022/11/29 04:43:31;;;;;;;12.70;12.20;;;10.70;47.80;;;;;;5070010;28;20485;-58
2022/11/29 04:46:38;;;;;;;12.33;11.83;;;10.90;47.00;;;;;;5079019;28;20441;-58
2022/11/29 04:49:27;;;;;;;12.60;12.10;;;11.10;45.60;;;;;;5071191;28;20835;-58
2022/11/29 04:52:20;;;;;;;12.23;11.77;;;11.20;45.60;;;;;;5073741;28;20438;-58
2022/11/29 04:54:49;;;;;;;11.63;11.17;;;11.30;44.10;;;;;;5087661;28;20416;-55
2022/11/29 04:57:33;;;;;;;12.70;12.13;;;11.20;44.20;;;;;;5085789;28;20419;-54
2022/11/29 05:00:08;;;;;;;11.73;11.20;;;11.30;44.20;;;;;;5085521;28;20412;-53
2022/11/29 05:02:55;;;;;;;11.70;11.20;;;11.40;43.70;;;;;;5089554;28;20466;-51
2022/11/29 05:05:36;;;;;;;11.40;11.00;;;11.50;42.90;;;;;;5090043;28;20420;-52
2022/11/29 05:08:40;;;;;;;10.80;10.40;;;11.60;43.00;;;;;;5088744;28;20411;-53
2022/11/29 05:11:32;;;;;;;11.70;11.20;;;11.60;42.90;;;;;;5090227;28;20449;-57
2022/11/29 05:14:07;;;;;;;11.93;11.43;;;11.60;42.30;;;;;;5089794;28;20439;-57
2022/11/29 05:17:01;;;;;;;11.33;10.83;;;11.60;42.50;;;;;;5092691;28;20415;-57
2022/11/29 05:19:46;;;;;;;11.33;10.93;;;11.50;42.90;;;;;;5049237;28;20462;-57
2022/11/29 05:22:49;;;;;;;11.10;10.70;;;11.50;42.90;;;;;;5076623;28;20512;-50
2022/11/29 05:25:33;;;;;;;11.03;10.60;;;11.40;42.80;;;;;;5078803;28;20411;-50
2022/11/29 05:28:26;;;;;;;10.23;9.93;;;11.10;44.30;;;;;;5084533;28;20443;-53
2022/11/29 05:31:20;;;;;;;10.70;10.30;;;11.00;45.10;;;;;;5079824;28;20425;-52
2022/11/29 05:33:45;;;;;;;10.77;10.37;;;11.00;45.50;;;;;;5081917;28;20412;-56
2022/11/29 05:36:47;;;;;;;10.93;10.53;;;10.90;45.60;;;;;;5079244;28;20876;-52
2022/11/29 05:39:16;;;;;;;10.67;10.27;;;10.70;46.30;;;;;;5084807;28;20186;-53
2022/11/29 05:42:13;;;;;;;10.60;10.10;;;10.80;47.10;;;;;;5078741;28;20428;-56
2022/11/29 05:44:44;;;;;;;13.17;12.47;;;10.90;46.80;;;;;;5073400;28;20417;-57
2022/11/29 05:47:18;;;;;;;12.17;11.57;;;10.70;46.00;;;;;;5094257;28;20400;-57
2022/11/29 05:49:59;;;;;;;10.40;10.00;;;10.60;47.00;;;;;;5085956;28;20405;-58
2022/11/29 05:52:40;;;;;;;11.40;11.00;;;10.50;48.10;;;;;;5082029;28;20419;-57
2022/11/29 05:55:28;;;;;;;13.07;12.17;;;10.70;48.10;;;;;;5070270;28;20413;-57
2022/11/29 05:58:02;;;;;;;11.50;11.00;;;10.70;46.90;;;;;;5072049;28;20516;-57
2022/11/29 06:00:47;;;;;;;11.03;10.53;;;10.70;47.30;;;;;;5077592;28;20410;-58
2022/11/29 06:03:35;;;;;;;11.03;10.63;;;10.80;47.20;;;;;;5084434;28;21011;-58
2022/11/29 06:06:23;;;;;;;11.43;10.83;;;10.90;46.40;;;;;;5082573;28;20463;-57
2022/11/29 06:09:18;;;;;;;10.87;10.47;;;11.00;45.30;;;;;;5077423;28;20944;-57
2022/11/29 06:11:56;;;;;;;11.43;10.93;;;11.10;44.90;;;;;;5080910;28;20417;-58
2022/11/29 06:14:34;;;;;;;11.27;10.87;;;10.90;45.10;;;;;;5079543;28;20424;-53
2022/11/29 06:17:52;;;;;;;10.40;10.00;;;10.90;45.60;;;;;;5081146;28;20419;-58
2022/11/29 06:20:32;;;;;;;10.87;10.47;;;11.00;45.20;;;;;;5060287;28;20414;-57
2022/11/29 06:23:16;;;;;;;11.10;10.70;;;11.10;44.70;;;;;;5079867;28;20447;-58
2022/11/29 06:26:07;;;;;;;10.70;10.30;;;11.10;44.10;;;;;;5086342;28;20408;-58
2022/11/29 06:28:51;;;;;;;11.13;10.73;;;11.20;43.90;;;;;;5086619;28;20737;-58
2022/11/29 06:31:25;;;;;;;11.73;11.33;;;11.20;43.70;;;;;;5088513;28;20995;-58
2022/11/29 06:34:32;;;;;;;10.77;10.37;;;11.20;43.30;;;;;;5082218;28;20431;-58
2022/11/29 06:37:23;;;;;;;11.87;11.40;;;11.20;42.70;;;;;;5080301;28;20430;-58
2022/11/29 06:39:49;;;;;;;11.37;10.97;;;11.20;43.10;;;;;;5078301;28;20466;-58
2022/11/29 06:42:14;;;;;;;10.83;10.43;;;11.20;42.90;;;;;;5083647;28;20435;-57
2022/11/29 06:44:41;;;;;;;12.00;11.57;;;11.20;43.20;;;;;;5080261;28;20411;-57
2022/11/29 06:47:40;;;;;;;11.10;10.70;;;11.20;43.30;;;;;;5083222;28;20265;-57
2022/11/29 06:50:12;;;;;;;11.53;11.03;;;11.20;43.40;;;;;;5077174;28;20778;-58
2022/11/29 06:52:37;;;;;;;11.93;11.50;;;11.20;43.10;;;;;;5091481;28;20524;-50
2022/11/29 06:55:06;;;;;;;11.43;10.93;;;11.20;42.90;;;;;;5078350;28;20495;-53
2022/11/29 06:58:02;;;;;;;11.37;10.77;;;11.20;43.10;;;;;;5090718;28;20179;-51
2022/11/29 07:00:35;;;;;;;12.47;11.87;;;11.20;42.90;;;;;;5072387;28;20419;-54
2022/11/29 07:03:01;;;;;;;11.57;11.03;;;11.20;42.70;;;;;;5079140;28;20509;-50
2022/11/29 07:05:31;;;;;;;12.53;12.03;;;11.10;43.90;;;;;;5090215;28;20780;-57
2022/11/29 07:08:02;;;;;;;12.17;11.67;;;11.00;44.40;;;;;;5095836;28;20179;-58
2022/11/29 07:10:31;;;;;;;13.37;12.87;;;11.10;44.00;;;;;;5090141;28;20494;-57
2022/11/29 07:12:56;;;;;;;12.80;12.27;;;11.10;43.90;;;;;;5081059;28;20825;-57
2022/11/29 07:15:22;;;;;;;12.03;11.63;;;11.20;43.80;;;;;;5081479;28;20749;-57
2022/11/29 07:18:08;;;;;;;12.43;11.93;;;11.20;42.90;;;;;;5079570;28;20683;-57
2022/11/29 07:20:49;;;;;;;13.07;12.47;;;11.30;42.80;;;;;;5062171;28;20423;-58
2022/11/29 07:23:41;;;;;;;12.00;11.50;;;11.30;42.80;;;;;;5077693;28;20517;-57
2022/11/29 07:26:20;;;;;;;12.57;12.07;;;11.30;42.80;;;;;;5082020;28;20408;-57
2022/11/29 07:29:23;;;;;;;13.43;12.83;;;11.30;42.80;;;;;;5085848;28;20415;-58
2022/11/29 07:32:07;;;;;;;13.40;12.80;;;11.20;42.70;;;;;;5087962;28;20900;-57
2022/11/29 07:35:07;;;;;;;14.43;13.83;;;11.10;44.00;;;;;;5087276;28;20783;-58
2022/11/29 07:37:43;;;;;;;12.50;12.00;;;11.20;43.80;;;;;;5082369;28;20412;-58
2022/11/29 07:40:13;;;;;;;13.90;13.30;;;11.20;43.30;;;;;;5081995;28;20451;-58
2022/11/29 07:43:02;;;;;;;14.57;13.77;;;11.20;43.00;;;;;;5085898;28;20661;-58
2022/11/29 07:45:35;;;;;;;14.07;13.47;;;11.30;42.80;;;;;;5051827;28;20929;-58
2022/11/29 07:48:01;;;;;;;15.37;14.67;;;11.20;42.80;;;;;;5086303;28;20483;-58
2022/11/29 07:50:28;;;;;;;14.27;13.67;;;11.20;42.80;;;;;;5081648;28;20844;-58
2022/11/29 07:52:55;;;;;;;15.43;14.67;;;11.20;42.70;;;;;;5092522;28;20174;-58
2022/11/29 07:55:22;;;;;;;13.70;13.00;;;11.20;43.20;;;;;;5091303;28;20408;-59
2022/11/29 07:57:49;;;;;;;13.30;12.70;;;11.20;43.80;;;;;;5091167;28;20420;-59
2022/11/29 08:00:17;;;;;;;13.80;13.20;;;11.30;44.10;;;;;;5087590;28;20782;-59
2022/11/29 08:02:43;;;;;;;13.67;13.07;;;11.30;43.40;;;;;;5083141;28;20463;-58
2022/11/29 08:05:09;;;;;;;14.10;13.40;;;11.30;42.80;;;;;;5094245;28;20403;-57
2022/11/29 08:07:37;;;;;;;13.30;12.70;;;11.30;42.80;;;;;;5078373;28;20801;-58
2022/11/29 08:10:09;;;;;;;12.60;12.10;;;11.30;42.80;;;;;;5080602;28;20488;-58
2022/11/29 08:12:34;;;;;;;12.90;12.27;;;11.30;42.80;;;;;;5080164;28;20416;-57
2022/11/29 08:15:01;;;;;;;12.70;12.10;;;11.30;42.80;;;;;;5092830;28;20946;-57
2022/11/29 08:17:26;;;;;;;13.00;12.50;;;11.30;42.80;;;;;;5082630;28;20206;-57
2022/11/29 08:19:52;;;;;;;13.90;13.20;;;11.30;43.40;;;;;;5084065;28;20835;-56
2022/11/29 08:22:18;;;;;;;14.10;13.47;;;11.30;42.80;;;;;;5083604;28;20464;-57
2022/11/29 08:24:43;;;;;;;13.17;12.67;;;11.30;42.80;;;;;;5087380;28;20639;-57
2022/11/29 08:27:09;;;;;;;14.03;13.43;;;11.30;43.40;;;;;;5082264;28;20181;-57
2022/11/29 08:29:35;;;;;;;13.70;13.10;;;11.30;42.80;;;;;;5091323;28;20182;-58
2022/11/29 08:32:01;;;;;;;13.00;12.50;;;11.30;43.00;;;;;;5084911;28;20549;-58
2022/11/29 08:34:27;;;;;;;13.80;13.10;;;11.30;43.10;;;;;;5083838;28;20666;-57
2022/11/29 08:36:56;;;;;;;12.07;11.47;;;11.20;43.50;;;;;;5089037;28;20436;-57
2022/11/29 08:39:22;;;;;;;12.00;11.50;;;11.20;43.40;;;;;;5082499;28;20436;-57
2022/11/29 08:41:48;;;;;;;13.73;13.13;;;11.10;43.40;;;;;;5086299;28;20450;-57
2022/11/29 08:44:14;;;;;;;12.90;12.30;;;11.10;44.10;;;;;;5095195;28;20869;-57
2022/11/29 08:49:24;;;;;;;12.80;12.30;;;11.20;44.20;;;;;;5095058;28;20189;-57
2022/11/29 08:53:40;;;;;;;12.80;12.30;;;11.20;44.20;;;;;;5089524;28;20424;-57
2022/11/29 08:54:41;;;;;;;12.30;11.77;;;11.10;44.40;;;;;;5104207;28;20236;-58
2022/11/29 08:57:06;;;;;;;12.20;11.70;;;11.10;44.30;;;;;;5086947;28;20412;-57
2022/11/29 08:59:32;;;;;;;12.20;11.77;;;11.10;44.50;;;;;;5091355;28;20261;-57
2022/11/29 09:01:58;;;;;;;11.50;11.10;;;11.10;44.60;;;;;;5091196;28;20257;-57
2022/11/29 09:04:23;;;;;;;12.53;12.03;;;11.10;44.60;;;;;;5081881;28;20208;-57
2022/11/29 09:06:49;;;;;;;11.83;11.43;;;11.10;44.90;;;;;;5088580;28;20177;-58
2022/11/29 09:09:15;;;;;;;11.97;11.40;;;11.00;45.40;;;;;;5087376;28;20577;-57
2022/11/29 09:11:41;;;;;;;11.20;10.80;;;11.00;45.40;;;;;;5084159;28;20263;-58
2022/11/29 09:14:10;;;;;;;11.40;10.97;;;11.00;45.60;;;;;;5085513;28;20404;-57
2022/11/29 09:16:37;;;;;;;12.33;11.93;;;11.10;45.50;;;;;;5081773;28;20513;-57
2022/11/29 09:19:04;;;;;;;12.67;12.17;;;11.10;45.40;;;;;;5084672;28;20814;-57
2022/11/29 09:21:31;;;;;;;12.40;11.90;;;11.10;45.30;;;;;;5078446;28;20452;-57
2022/11/29 09:24:04;;;;;;;13.37;12.67;;;11.10;45.40;;;;;;5089033;28;21497;-57
2022/11/29 09:26:32;;;;;;;12.57;12.00;;;11.10;45.30;;;;;;5083487;28;20822;-57
2022/11/29 09:29:02;;;;;;;13.23;12.73;;;11.10;45.40;;;;;;5090004;28;20963;-57
2022/11/29 09:31:29;;;;;;;13.43;12.83;;;11.10;45.60;;;;;;5101020;28;20407;-58
2022/11/29 09:33:55;;;;;;;12.97;12.37;;;11.10;45.60;;;;;;5099135;28;20419;-57
2022/11/29 09:36:21;;;;;;;13.80;13.20;;;11.10;45.40;;;;;;5081887;28;20469;-58
2022/11/29 09:38:47;;;;;;;14.00;13.40;;;11.10;44.90;;;;;;5086036;28;20933;-61
2022/11/29 09:41:34;;;;;;;14.13;13.43;;;11.10;45.50;;;;;;5083767;28;20416;-58
2022/11/29 09:44:37;;;;;;;14.80;14.00;;;11.00;45.60;;;;;;5085828;28;20233;-58
2022/11/29 09:47:23;;;;;;;14.57;13.77;;;11.00;45.80;;;;;;5080259;28;20420;-58
2022/11/29 09:50:00;;;;;;;14.97;14.10;;;11.00;46.00;;;;;;5080385;28;20920;-58
2022/11/29 09:52:46;;;;;;;14.13;13.43;;;11.00;46.10;;;;;;5080198;28;20468;-59
2022/11/29 09:55:33;;;;;;;14.30;13.60;;;11.00;45.70;;;;;;5083490;28;20565;-58
2022/11/29 09:58:00;;;;;;;15.30;14.47;;;10.90;46.00;;;;;;5097687;28;20763;-58
2022/11/29 10:00:28;;;;;;;15.90;15.00;;;10.90;46.20;;;;;;5084206;28;20415;-58
2022/11/29 10:03:01;;;;;;;14.33;13.63;;;11.00;46.30;;;;;;5103299;28;20461;-58
2022/11/29 10:05:45;;;;;;;15.37;14.53;;;11.00;46.20;;;;;;5080085;28;20412;-57
2022/11/29 10:08:23;;;;;;;15.77;14.97;;;11.00;46.40;;;;;;5077480;28;20444;-56
2022/11/29 10:10:55;;;;;;;16.63;15.63;;;11.00;46.30;;;;;;5100201;28;20499;-59
2022/11/29 10:13:33;;;;;;;16.27;15.37;;;10.90;46.80;;;;;;5098620;28;20461;-57
2022/11/29 10:16:11;;;;;;;17.30;16.20;;;10.90;47.10;;;;;;5106381;28;20408;-57
2022/11/29 10:18:50;;;;;;;16.80;15.90;;;10.90;47.30;;;;;;5087555;28;20465;-58
2022/11/29 10:21:31;;;;;;;15.70;14.90;;;10.90;47.00;;;;;;5085152;28;20413;-56
2022/11/29 10:24:16;;;;;;;16.80;15.90;;;10.90;47.00;;;;;;5085738;28;20621;-56
2022/11/29 10:26:42;;;;;;;17.20;16.20;;;10.90;47.00;;;;;;5080509;28;20411;-56
2022/11/29 10:29:13;;;;;;;14.83;14.03;;;10.80;47.00;;;;;;5090818;28;20899;-58
2022/11/29 10:31:42;;;;;;;15.73;14.83;;;10.80;47.40;;;;;;5084808;28;20412;-51
2022/11/29 10:34:30;;;;;;;17.67;16.57;;;10.80;47.90;;;;;;5080613;28;20411;-50
2022/11/29 10:36:58;;;;;;;17.80;16.80;;;10.80;48.00;;;;;;5082384;28;20928;-51
2022/11/29 10:39:39;;;;;;;19.47;18.23;;;10.80;47.70;;;;;;5079559;28;20959;-52
2022/11/29 10:42:47;;;;;;;18.70;17.60;;;10.70;47.40;;;;;;5081613;28;20512;-53
2022/11/29 10:44:58;;;;;;;20.27;19.10;;;10.80;47.80;;;;;;5097326;28;21739;-51
2022/11/29 10:47:24;;;;;;;18.87;17.77;;;10.80;47.70;;;;;;5089484;28;20802;-50
2022/11/29 10:49:49;;;;;;;19.43;18.40;;;10.80;47.30;;;;;;5078635;28;20466;-50
2022/11/29 10:52:22;;;;;;;17.80;16.80;;;10.90;47.10;;;;;;5087766;28;20178;-51
2022/11/29 10:54:51;;;;;;;16.97;16.17;;;10.90;46.30;;;;;;5085544;28;20307;-53
2022/11/29 10:57:19;;;;;;;18.47;17.47;;;10.80;46.00;;;;;;5103834;28;20412;-52
2022/11/29 11:00:17;;;;;;;18.67;17.57;;;10.80;46.40;;;;;;5078677;28;20416;-53
2022/11/29 11:02:43;;;;;;;17.43;16.53;;;10.80;46.30;;;;;;5043147;28;20495;-50
2022/11/29 11:05:18;;;;;;;16.90;16.00;;;10.80;46.40;;;;;;5087732;28;20444;-52
2022/11/29 11:07:46;;;;;;;16.70;15.80;;;10.90;45.70;;;;;;5076489;28;20182;-53
2022/11/29 11:10:26;;;;;;;16.70;15.80;;;10.80;45.90;;;;;;5086332;28;20423;-54
2022/11/29 11:13:17;;;;;;;17.20;16.30;;;10.90;46.90;;;;;;5076678;28;20515;-50
2022/11/29 11:15:43;;;;;;;16.10;15.30;;;10.90;46.20;;;;;;5098501;28;20415;-54
2022/11/29 11:18:22;;;;;;;17.10;16.20;;;11.00;45.70;;;;;;5084294;28;20409;-53
2022/11/29 11:21:00;;;;;;;17.70;16.70;;;11.00;45.20;;;;;;5081645;28;20265;-51
2022/11/29 11:23:30;;;;;;;18.77;17.57;;;10.90;45.40;;;;;;5082806;28;20484;-52
2022/11/29 11:26:05;;;;;;;18.40;17.30;;;10.90;45.70;;;;;;5081994;28;20454;-54
2022/11/29 11:28:57;;;;;;;17.60;16.70;;;10.80;45.90;;;;;;5090062;28;20783;-54
2022/11/29 11:31:33;;;;;;;17.60;16.60;;;10.80;46.20;;;;;;5091431;28;20412;-51
2022/11/29 11:34:26;;;;;;;18.40;17.13;;;10.80;46.10;;;;;;5092423;28;20415;-53
2022/11/29 11:37:10;;;;;;;17.10;16.20;;;10.80;45.80;;;;;;5095593;28;20821;-50
2022/11/29 11:39:35;;;;;;;17.93;16.93;;;10.70;46.30;;;;;;5083549;28;20466;-53
2022/11/29 11:44:48;;;;;;;15.73;14.83;;;10.80;46.80;;;;;;5097511;28;20197;-51
2022/11/29 11:47:27;;;;;;;15.90;15.03;;;10.70;47.20;;;;;;5086138;28;20490;-51
2022/11/29 11:50:05;;;;;;;16.93;16.13;;;10.70;47.40;;;;;;5092746;28;20420;-49
2022/11/29 11:52:43;;;;;;;17.00;16.00;;;10.80;47.00;;;;;;5083137;28;20469;-53
2022/11/29 11:55:20;;;;;;;16.50;15.60;;;10.80;46.20;;;;;;5095326;28;20809;-49
2022/11/29 11:58:30;;;;;;;15.23;14.53;;;10.90;46.40;;;;;;5094604;28;20617;-51
2022/11/29 12:01:06;;;;;;;17.50;16.50;;;10.90;46.00;;;;;;5084034;28;20954;-52
2022/11/29 12:03:38;;;;;;;15.73;14.93;;;10.90;45.90;;;;;;5086541;28;20463;-53
2022/11/29 12:06:31;;;;;;;16.10;15.20;;;10.90;45.70;;;;;;5082880;28;20423;-50
2022/11/29 12:09:07;;;;;;;17.23;16.33;;;11.00;45.40;;;;;;5082376;28;20455;-54
2022/11/29 12:12:21;;;;;;;16.57;15.70;;;11.00;44.90;;;;;;5084672;28;20419;-54
2022/11/29 12:14:52;;;;;;;15.17;14.47;;;11.00;44.80;;;;;;5083143;28;20416;-54
2022/11/29 12:17:35;;;;;;;16.10;15.30;;;11.00;44.90;;;;;;5095684;28;20424;-51
2022/11/29 12:20:19;;;;;;;16.33;15.47;;;11.00;44.40;;;;;;5092979;28;20506;-54
2022/11/29 12:23:11;;;;;;;16.43;15.53;;;11.10;44.20;;;;;;5088013;28;20515;-52
2022/11/29 12:25:56;;;;;;;16.33;15.53;;;11.00;44.50;;;;;;5070747;28;20768;-50
2022/11/29 12:28:37;;;;;;;16.00;15.20;;;11.10;44.70;;;;;;5086871;28;20417;-54
2022/11/29 12:31:28;;;;;;;16.80;15.97;;;11.10;44.70;;;;;;5077838;28;20427;-51
2022/11/29 12:34:10;;;;;;;16.60;15.80;;;11.10;44.60;;;;;;5082351;28;20419;-54
2022/11/29 12:37:01;;;;;;;16.70;15.90;;;11.10;44.10;;;;;;5089189;28;20472;-55
2022/11/29 12:39:49;;;;;;;16.70;15.90;;;11.10;44.20;;;;;;5085918;28;20452;-53
2022/11/29 12:42:18;;;;;;;15.93;15.13;;;11.10;44.40;;;;;;5084615;28;20431;-52
2022/11/29 12:44:55;;;;;;;18.10;17.10;;;11.10;43.90;;;;;;5085908;28;20419;-51
2022/11/29 12:47:54;;;;;;;15.93;15.10;;;11.10;44.20;;;;;;5086797;28;20417;-51
2022/11/29 12:50:32;;;;;;;17.20;16.30;;;11.10;45.60;;;;;;5080650;28;20417;-53
2022/11/29 12:53:16;;;;;;;17.07;16.20;;;11.10;44.90;;;;;;5084365;28;20587;-49
2022/11/29 12:56:03;;;;;;;17.93;17.03;;;11.10;44.50;;;;;;5084934;28;20950;-55
2022/11/29 12:58:29;;;;;;;17.77;16.97;;;11.10;44.70;;;;;;5081999;28;20465;-52
2022/11/29 13:01:17;;;;;;;16.90;16.00;;;11.10;44.50;;;;;;5086830;28;20923;-53
2022/11/29 13:04:21;;;;;;;16.87;15.93;;;11.10;43.90;;;;;;5053858;28;20217;-53
2022/11/29 13:07:01;;;;;;;16.40;15.60;;;10.60;46.20;;;;;;5068580;28;21108;-52
2022/11/29 13:10:06;;;;;;;15.60;14.90;;;10.60;47.50;;;;;;5093821;28;20783;-49
2022/11/29 13:12:42;;;;;;;14.47;13.87;;;10.70;46.70;;;;;;5092075;28;20443;-51
2022/11/29 13:15:39;;;;;;;14.50;13.90;;;10.90;45.30;;;;;;5080672;28;20899;-53
2022/11/29 13:18:09;;;;;;;15.57;14.57;;;10.90;44.40;;;;;;5091046;28;20903;-52
2022/11/29 13:20:58;;;;;;;14.70;14.10;;;11.00;44.50;;;;;;5084048;28;20465;-51
2022/11/29 13:23:55;;;;;;;14.23;13.63;;;11.00;43.90;;;;;;5077031;28;20460;-52
2022/11/29 13:26:22;;;;;;;14.87;14.27;;;11.00;43.70;;;;;;5082310;28;20416;-52